Time;durP1;ratioP1;P1;durP2;ratioP2;P2;SDS_P1;SDS_P2;PMS_P1;PMS_P2;Temp;Humidity;BMP_temperature;BMP_pressure;BME280_temperature;BME280_humidity;BME280_pressure;Samples;Min_cycle;Max_cycle;Signal;HPM_P1;HPM_P2
2022/10/15 00:00:36;;;;;;;3.50;2.40;;;;;;;;;;5039719;28;20029;-78
2022/10/15 00:03:02;;;;;;;9.40;2.38;;;;;;;;;;5040048;28;20025;-79
2022/10/15 00:05:28;;;;;;;5.07;2.45;;;;;;;;;;5039795;28;20115;-78
2022/10/15 00:07:57;;;;;;;4.47;2.35;;;;;;;;;;5039949;28;20417;-78
2022/10/15 00:10:23;;;;;;;4.03;2.20;;;;;;;;;;5039912;28;20025;-78
2022/10/15 00:12:49;;;;;;;5.22;2.60;;;;;;;;;;5031931;28;20111;-78
2022/10/15 00:15:15;;;;;;;2.83;2.08;;;;;;;;;;5027532;28;20104;-78
2022/10/15 00:17:42;;;;;;;3.20;2.20;;;;;;;;;;5038937;28;20021;-78
2022/10/15 00:20:35;;;;;;;2.78;2.22;;;;;;;;;;5036425;28;20033;-79
2022/10/15 00:23:01;;;;;;;2.58;1.98;;;;;;;;;;5029611;28;20133;-78
2022/10/15 00:25:27;;;;;;;3.05;2.17;;;;;;;;;;5055289;28;20057;-77
2022/10/15 00:27:53;;;;;;;2.38;2.17;;;;;;;;;;5057100;28;20704;-78
2022/10/15 00:30:19;;;;;;;3.92;2.50;;;;;;;;;;5037613;28;20109;-78
2022/10/15 00:32:45;;;;;;;2.80;2.15;;;;;;;;;;5056537;28;20039;-79
2022/10/15 00:35:11;;;;;;;7.90;2.20;;;;;;;;;;5039502;28;20383;-79
2022/10/15 00:37:36;;;;;;;3.05;2.35;;;;;;;;;;5039432;28;20044;-78
2022/10/15 00:40:03;;;;;;;4.38;2.60;;;;;;;;;;5039334;28;20052;-78
2022/10/15 00:42:29;;;;;;;3.10;2.60;;;;;;;;;;5039667;28;20028;-78
2022/10/15 00:44:56;;;;;;;3.33;2.60;;;;;;;;;;5039176;28;20040;-79
2022/10/15 00:47:35;;;;;;;6.30;2.80;;;;;;;;;;5039399;28;20029;-78
2022/10/15 00:50:03;;;;;;;4.75;2.80;;;;;;;;;;5039583;28;20043;-78
2022/10/15 00:52:34;;;;;;;5.85;2.17;;;;;;;;;;5038954;28;20356;-78
2022/10/15 00:55:06;;;;;;;3.92;3.00;;;;;;;;;;5041067;28;20025;-78
2022/10/15 00:57:32;;;;;;;3.90;2.97;;;;;;;;;;5039940;28;20025;-78
2022/10/15 01:00:03;;;;;;;4.13;3.25;;;;;;;;;;5039099;28;20040;-79
2022/10/15 01:02:29;;;;;;;4.63;3.40;;;;;;;;;;5058723;28;20414;-78
2022/10/15 01:04:57;;;;;;;4.15;3.33;;;;;;;;;;5038876;28;20033;-78
2022/10/15 01:07:25;;;;;;;4.70;3.77;;;;;;;;;;5036699;28;20351;-78
2022/10/15 01:09:51;;;;;;;5.43;3.83;;;;;;;;;;5039307;28;20110;-78
2022/10/15 01:12:25;;;;;;;5.87;3.43;;;;;;;;;;5055994;28;20040;-78
2022/10/15 01:15:06;;;;;;;4.73;3.43;;;;;;;;;;5041862;28;20025;-79
2022/10/15 01:17:44;;;;;;;5.47;3.60;;;;;;;;;;5039031;28;20060;-78
2022/10/15 01:20:29;;;;;;;4.30;3.60;;;;;;;;;;5042671;28;20033;-78
2022/10/15 01:23:16;;;;;;;6.30;4.20;;;;;;;;;;5038879;28;20083;-79
2022/10/15 01:26:07;;;;;;;6.20;4.00;;;;;;;;;;5038690;28;20029;-78
2022/10/15 01:28:44;;;;;;;7.40;3.92;;;;;;;;;;5039103;28;20029;-79
2022/10/15 01:31:10;;;;;;;5.65;3.63;;;;;;;;;;5038387;28;20036;-78
2022/10/15 01:33:44;;;;;;;3.97;3.33;;;;;;;;;;5038503;28;20017;-79
2022/10/15 01:36:17;;;;;;;5.20;3.87;;;;;;;;;;5052528;28;20029;-79
2022/10/15 01:38:46;;;;;;;6.22;4.03;;;;;;;;;;5047213;28;20048;-78
2022/10/15 01:41:22;;;;;;;4.13;3.67;;;;;;;;;;5052602;28;20112;-79
2022/10/15 01:44:03;;;;;;;4.17;3.43;;;;;;;;;;5049262;28;20445;-78
2022/10/15 01:46:49;;;;;;;4.87;3.17;;;;;;;;;;5034636;28;20145;-78
2022/10/15 01:49:20;;;;;;;6.10;3.43;;;;;;;;;;5037369;28;20029;-78
2022/10/15 01:51:47;;;;;;;5.20;3.57;;;;;;;;;;5034611;28;20055;-78
2022/10/15 01:54:16;;;;;;;6.73;3.97;;;;;;;;;;5034630;28;20460;-78
2022/10/15 01:56:48;;;;;;;4.57;3.83;;;;;;;;;;5033504;28;20335;-77
2022/10/15 01:59:17;;;;;;;5.30;3.90;;;;;;;;;;5031948;28;20763;-78
2022/10/15 02:01:44;;;;;;;4.50;3.80;;;;;;;;;;5051974;28;20036;-77
2022/10/15 02:04:18;;;;;;;4.55;3.67;;;;;;;;;;5034230;28;20438;-77
2022/10/15 02:06:45;;;;;;;4.53;3.53;;;;;;;;;;5050732;28;20441;-78
2022/10/15 02:09:14;;;;;;;7.67;3.63;;;;;;;;;;5033883;28;20060;-77
2022/10/15 02:11:50;;;;;;;6.33;4.17;;;;;;;;;;5049882;28;20036;-79
2022/10/15 02:14:22;;;;;;;6.00;4.17;;;;;;;;;;5027665;28;20059;-78
2022/10/15 02:17:04;;;;;;;4.95;4.25;;;;;;;;;;5051310;28;20116;-78
2022/10/15 02:19:31;;;;;;;5.05;3.90;;;;;;;;;;5031479;28;20025;-78
2022/10/15 02:22:08;;;;;;;5.47;4.43;;;;;;;;;;5033623;28;20029;-78
2022/10/15 02:24:36;;;;;;;4.80;3.90;;;;;;;;;;5050554;28;20104;-78
2022/10/15 02:27:05;;;;;;;5.00;4.30;;;;;;;;;;5030275;28;20031;-78
2022/10/15 02:29:33;;;;;;;5.07;3.57;;;;;;;;;;5035832;28;20025;-77
2022/10/15 02:32:00;;;;;;;6.20;4.20;;;;;;;;;;5032191;28;20025;-78
2022/10/15 02:34:27;;;;;;;5.23;3.87;;;;;;;;;;5031784;28;20048;-77
2022/10/15 02:36:55;;;;;;;7.00;3.67;;;;;;;;;;5030754;28;20087;-77
2022/10/15 02:39:25;;;;;;;8.17;3.80;;;;;;;;;;5045509;28;20029;-78
2022/10/15 02:41:54;;;;;;;3.97;3.57;;;;;;;;;;5033615;28;20040;-79
2022/10/15 02:44:20;;;;;;;5.73;4.30;;;;;;;;;;5024997;28;20136;-79
2022/10/15 02:46:46;;;;;;;6.67;4.00;;;;;;;;;;5034085;28;20033;-78
2022/10/15 02:49:12;;;;;;;4.40;3.57;;;;;;;;;;5034451;28;20037;-76
2022/10/15 02:51:38;;;;;;;5.47;4.10;;;;;;;;;;5035075;28;20889;-78
2022/10/15 02:54:05;;;;;;;7.37;4.03;;;;;;;;;;5033207;28;20033;-78
2022/10/15 02:56:32;;;;;;;5.27;3.77;;;;;;;;;;5032988;28;20114;-78
2022/10/15 02:58:59;;;;;;;4.40;3.50;;;;;;;;;;5032550;28;20516;-78
2022/10/15 03:01:26;;;;;;;5.57;3.33;;;;;;;;;;5033249;28;20140;-78
2022/10/15 03:03:53;;;;;;;6.57;3.40;;;;;;;;;;5034448;28;20090;-78
2022/10/15 03:06:20;;;;;;;5.03;3.50;;;;;;;;;;5046446;28;20117;-78
2022/10/15 03:08:47;;;;;;;4.82;4.15;;;;;;;;;;5049182;28;20142;-77
2022/10/15 03:11:13;;;;;;;5.70;4.27;;;;;;;;;;5030337;28;20037;-78
2022/10/15 03:13:40;;;;;;;6.53;3.93;;;;;;;;;;5031424;28;21623;-78
2022/10/15 03:16:09;;;;;;;3.83;3.40;;;;;;;;;;5033091;28;20029;-78
2022/10/15 03:18:39;;;;;;;4.00;3.60;;;;;;;;;;5031507;28;20025;-78
2022/10/15 03:21:06;;;;;;;4.18;3.50;;;;;;;;;;5048382;28;20032;-78
2022/10/15 03:23:32;;;;;;;7.83;4.00;;;;;;;;;;5036861;28;20032;-78
2022/10/15 03:25:58;;;;;;;5.57;3.50;;;;;;;;;;5034959;28;20017;-78
2022/10/15 03:28:24;;;;;;;5.77;4.30;;;;;;;;;;5028678;28;20720;-79
2022/10/15 03:30:52;;;;;;;5.20;3.60;;;;;;;;;;5033447;28;20040;-78
2022/10/15 03:33:18;;;;;;;6.80;4.13;;;;;;;;;;5034947;28;20364;-79
2022/10/15 03:35:44;;;;;;;8.13;3.90;;;;;;;;;;5034218;28;20446;-78
2022/10/15 03:38:11;;;;;;;5.00;3.70;;;;;;;;;;5032231;28;20116;-79
2022/10/15 03:40:39;;;;;;;5.95;3.88;;;;;;;;;;5052669;28;20027;-78
2022/10/15 03:43:05;;;;;;;4.60;3.50;;;;;;;;;;5043353;28;20029;-78
2022/10/15 03:45:31;;;;;;;5.03;3.60;;;;;;;;;;5040975;28;20028;-78
2022/10/15 03:47:57;;;;;;;5.07;3.93;;;;;;;;;;5040428;28;20029;-79
2022/10/15 03:50:24;;;;;;;5.33;4.07;;;;;;;;;;5044471;28;20339;-78
2022/10/15 03:52:50;;;;;;;5.53;4.50;;;;;;;;;;5040071;28;20036;-78
2022/10/15 03:55:16;;;;;;;5.77;4.13;;;;;;;;;;5040293;28;20025;-78
2022/10/15 03:57:44;;;;;;;6.03;3.90;;;;;;;;;;5040102;28;20429;-78
2022/10/15 04:00:11;;;;;;;6.20;4.60;;;;;;;;;;5040315;28;20040;-78
2022/10/15 04:02:37;;;;;;;5.47;3.97;;;;;;;;;;5031615;28;20446;-78
2022/10/15 04:05:04;;;;;;;5.22;4.03;;;;;;;;;;5039815;28;20036;-78
2022/10/15 04:07:29;;;;;;;6.20;4.03;;;;;;;;;;5040094;28;20445;-77
2022/10/15 04:09:58;;;;;;;5.35;4.25;;;;;;;;;;5040222;28;20025;-78
2022/10/15 04:12:24;;;;;;;5.53;4.00;;;;;;;;;;5032033;28;20111;-78
2022/10/15 04:14:50;;;;;;;7.97;5.60;;;;;;;;;;5040077;28;20175;-78
2022/10/15 04:17:16;;;;;;;5.33;4.33;;;;;;;;;;5039648;28;20115;-79
2022/10/15 04:19:42;;;;;;;6.07;4.10;;;;;;;;;;5039898;28;20037;-78
2022/10/15 04:22:08;;;;;;;4.43;3.67;;;;;;;;;;5039901;28;20442;-79
2022/10/15 04:24:34;;;;;;;6.30;4.18;;;;;;;;;;5039652;28;20119;-78
2022/10/15 04:27:00;;;;;;;5.23;4.10;;;;;;;;;;5039388;28;20032;-78
2022/10/15 04:29:28;;;;;;;6.43;4.50;;;;;;;;;;5039429;28;20060;-79
2022/10/15 04:31:54;;;;;;;6.10;4.13;;;;;;;;;;5039547;28;20025;-79
2022/10/15 04:34:20;;;;;;;10.43;4.63;;;;;;;;;;5039552;28;20048;-78
2022/10/15 04:36:48;;;;;;;10.63;4.67;;;;;;;;;;5039300;28;20036;-78
2022/10/15 04:39:17;;;;;;;5.17;4.17;;;;;;;;;;5039788;28;20123;-78
2022/10/15 04:41:43;;;;;;;5.30;4.20;;;;;;;;;;5039470;28;20330;-78
2022/10/15 04:44:09;;;;;;;5.77;4.23;;;;;;;;;;5039747;28;20044;-79
2022/10/15 04:46:35;;;;;;;9.33;4.67;;;;;;;;;;5056793;28;20113;-79
2022/10/15 04:49:01;;;;;;;7.30;4.83;;;;;;;;;;5039004;28;20498;-79
2022/10/15 04:51:27;;;;;;;8.57;4.90;;;;;;;;;;5039045;28;20040;-78
2022/10/15 04:53:53;;;;;;;8.40;5.27;;;;;;;;;;5039414;28;20021;-79
2022/10/15 04:56:20;;;;;;;8.33;5.73;;;;;;;;;;5039156;28;20025;-78
2022/10/15 04:58:47;;;;;;;9.27;6.53;;;;;;;;;;5033378;28;20033;-79
2022/10/15 05:01:14;;;;;;;9.30;6.57;;;;;;;;;;5037141;28;20025;-78
2022/10/15 05:03:41;;;;;;;10.30;6.33;;;;;;;;;;5049868;28;20036;-79
2022/10/15 05:06:11;;;;;;;10.77;7.13;;;;;;;;;;5038847;28;20033;-79
2022/10/15 05:08:40;;;;;;;11.37;6.87;;;;;;;;;;5031648;28;20064;-79
2022/10/15 05:11:07;;;;;;;9.03;6.63;;;;;;;;;;5038696;28;20028;-79
2022/10/15 05:13:34;;;;;;;13.40;7.40;;;;;;;;;;5038658;28;20024;-79
2022/10/15 05:16:14;;;;;;;12.03;7.37;;;;;;;;;;5038815;28;20113;-79
2022/10/15 05:18:40;;;;;;;11.43;6.93;;;;;;;;;;5038479;28;20045;-78
2022/10/15 05:21:06;;;;;;;11.23;7.97;;;;;;;;;;5038647;28;20033;-79
2022/10/15 05:23:35;;;;;;;11.23;7.47;;;;;;;;;;5024868;28;20029;-78
2022/10/15 05:26:02;;;;;;;12.93;6.77;;;;;;;;;;5041643;28;20120;-78
2022/10/15 05:28:28;;;;;;;9.97;6.60;;;;;;;;;;5038718;28;20033;-79
2022/10/15 05:30:56;;;;;;;10.07;6.33;;;;;;;;;;5039001;28;20040;-78
2022/10/15 05:33:24;;;;;;;10.60;6.60;;;;;;;;;;5038554;28;20108;-78
2022/10/15 05:35:50;;;;;;;9.70;6.03;;;;;;;;;;5038223;28;20120;-79
2022/10/15 05:38:16;;;;;;;9.17;5.30;;;;;;;;;;5038343;28;20033;-78
2022/10/15 05:40:49;;;;;;;8.20;5.87;;;;;;;;;;5038180;28;20350;-78
2022/10/15 05:43:15;;;;;;;7.80;5.87;;;;;;;;;;5056042;28;20025;-79
2022/10/15 05:45:44;;;;;;;9.13;6.73;;;;;;;;;;5038206;28;20041;-78
2022/10/15 05:48:10;;;;;;;11.53;7.27;;;;;;;;;;5038720;28;20491;-78
2022/10/15 05:50:36;;;;;;;13.47;7.47;;;;;;;;;;5037739;28;20059;-78
2022/10/15 05:53:02;;;;;;;11.47;8.17;;;;;;;;;;5038229;28;20119;-78
2022/10/15 05:55:30;;;;;;;12.23;7.33;;;;;;;;;;5038251;28;20445;-79
2022/10/15 05:58:00;;;;;;;11.90;7.77;;;;;;;;;;5038003;28;20094;-78
2022/10/15 06:00:28;;;;;;;11.20;7.50;;;;;;;;;;5037804;28;20070;-78
2022/10/15 06:02:54;;;;;;;11.90;7.90;;;;;;;;;;5038107;28;20488;-78
2022/10/15 06:05:20;;;;;;;11.07;7.73;;;;;;;;;;5055550;28;20059;-79
2022/10/15 06:07:46;;;;;;;13.30;8.67;;;;;;;;;;5057065;28;20028;-78
2022/10/15 06:10:13;;;;;;;15.40;9.30;;;;;;;;;;5040309;28;20032;-78
2022/10/15 06:12:39;;;;;;;18.70;9.30;;;;;;;;;;5038396;28;20052;-78
2022/10/15 06:15:06;;;;;;;21.07;10.60;;;;;;;;;;5038776;28;20104;-79
2022/10/15 06:17:32;;;;;;;18.50;10.40;;;;;;;;;;5038044;28;20032;-78
2022/10/15 06:19:58;;;;;;;17.03;11.20;;;;;;;;;;5038374;28;20020;-79
2022/10/15 06:22:29;;;;;;;15.17;9.13;;;;;;;;;;5037817;28;20032;-78
2022/10/15 06:24:55;;;;;;;15.00;9.27;;;;;;;;;;5038413;28;20345;-78
2022/10/15 06:27:21;;;;;;;19.03;10.73;;;;;;;;;;5037854;28;20794;-79
2022/10/15 06:29:47;;;;;;;16.27;9.37;;;;;;;;;;5056162;28;20090;-78
2022/10/15 06:32:13;;;;;;;15.30;9.90;;;;;;;;;;5037667;28;20025;-78
2022/10/15 06:34:40;;;;;;;16.23;9.80;;;;;;;;;;5041054;28;20393;-79
2022/10/15 06:37:06;;;;;;;16.27;9.60;;;;;;;;;;5037578;28;20384;-78
2022/10/15 06:39:32;;;;;;;15.07;8.83;;;;;;;;;;5037668;28;20040;-79
2022/10/15 06:42:00;;;;;;;15.33;9.57;;;;;;;;;;5037323;28;20028;-79
2022/10/15 06:44:26;;;;;;;17.47;9.87;;;;;;;;;;5037300;28;20029;-79
2022/10/15 06:46:52;;;;;;;16.30;10.30;;;;;;;;;;5027594;28;20030;-79
2022/10/15 06:49:21;;;;;;;17.23;9.80;;;;;;;;;;5033111;28;20032;-79
2022/10/15 06:51:47;;;;;;;13.90;9.20;;;;;;;;;;5037034;28;20044;-78
2022/10/15 06:54:15;;;;;;;13.57;8.23;;;;;;;;;;5036993;28;20025;-78
2022/10/15 06:56:44;;;;;;;9.17;7.00;;;;;;;;;;5037044;28;20032;-78
2022/10/15 06:59:10;;;;;;;8.87;6.17;;;;;;;;;;5039740;28;20036;-78
2022/10/15 07:01:39;;;;;;;6.53;5.13;;;;;;;;;;5037312;28;20119;-79
2022/10/15 07:04:05;;;;;;;8.50;5.13;;;;;;;;;;5037228;28;20032;-78
2022/10/15 07:06:32;;;;;;;5.73;4.10;;;;;;;;;;5040524;28;20098;-78
2022/10/15 07:09:00;;;;;;;5.73;4.13;;;;;;;;;;5054571;28;20033;-78
2022/10/15 07:11:29;;;;;;;5.17;4.23;;;;;;;;;;5056840;28;20027;-79
2022/10/15 07:13:56;;;;;;;3.97;3.40;;;;;;;;;;5041665;28;20079;-79
2022/10/15 07:16:23;;;;;;;5.23;3.17;;;;;;;;;;5040948;28;20048;-79
2022/10/15 07:18:49;;;;;;;2.88;2.50;;;;;;;;;;5040765;28;20029;-78
2022/10/15 07:21:15;;;;;;;3.50;2.40;;;;;;;;;;5040850;28;20112;-78
2022/10/15 07:23:41;;;;;;;5.10;2.35;;;;;;;;;;5041113;28;20418;-78
2022/10/15 07:26:07;;;;;;;2.30;2.03;;;;;;;;;;5040707;28;20052;-78
2022/10/15 07:28:33;;;;;;;8.13;2.50;;;;;;;;;;5040951;28;20455;-78
2022/10/15 07:31:03;;;;;;;3.97;2.42;;;;;;;;;;5040618;28;20032;-79
2022/10/15 07:33:29;;;;;;;3.15;1.80;;;;;;;;;;5041096;28;20029;-78
2022/10/15 07:35:57;;;;;;;2.72;2.22;;;;;;;;;;5038509;28;20033;-78
2022/10/15 07:38:23;;;;;;;2.47;1.67;;;;;;;;;;5036034;28;20426;-78
2022/10/15 07:40:49;;;;;;;3.60;1.60;;;;;;;;;;5037056;28;20039;-78
2022/10/15 07:43:15;;;;;;;3.78;1.92;;;;;;;;;;5034587;28;20055;-77
2022/10/15 07:45:48;;;;;;;2.00;1.55;;;;;;;;;;5035396;28;20044;-78
2022/10/15 07:48:14;;;;;;;2.58;1.67;;;;;;;;;;5050906;28;20028;-78
2022/10/15 07:50:40;;;;;;;1.98;1.35;;;;;;;;;;5036195;28;20059;-78
2022/10/15 07:53:09;;;;;;;4.18;2.58;;;;;;;;;;5035479;28;20434;-78
2022/10/15 07:55:35;;;;;;;1.67;1.15;;;;;;;;;;5032155;28;20037;-78
2022/10/15 07:58:04;;;;;;;4.78;2.63;;;;;;;;;;5052332;28;20021;-78
2022/10/15 08:00:33;;;;;;;3.00;1.77;;;;;;;;;;5052571;28;20052;-78
2022/10/15 08:02:59;;;;;;;2.35;1.30;;;;;;;;;;5033437;28;20048;-78
2022/10/15 08:05:25;;;;;;;2.13;1.10;;;;;;;;;;5031683;28;20029;-77
2022/10/15 08:07:51;;;;;;;3.17;1.75;;;;;;;;;;5034279;28;20047;-77
2022/10/15 08:10:17;;;;;;;2.13;1.10;;;;;;;;;;5029075;28;20034;-77
2022/10/15 08:12:43;;;;;;;2.97;1.50;;;;;;;;;;5034844;28;20029;-78
2022/10/15 08:15:10;;;;;;;4.00;0.98;;;;;;;;;;5035906;28;20040;-78
2022/10/15 08:17:36;;;;;;;1.38;0.90;;;;;;;;;;5052363;28;20025;-78
2022/10/15 08:20:04;;;;;;;2.47;1.65;;;;;;;;;;5035460;28;20075;-78
2022/10/15 08:22:30;;;;;;;1.63;1.17;;;;;;;;;;5053396;28;20040;-79
2022/10/15 08:24:59;;;;;;;1.30;1.13;;;;;;;;;;5035557;28;20028;-78
2022/10/15 08:27:28;;;;;;;2.25;1.30;;;;;;;;;;5035582;28;20033;-78
2022/10/15 08:29:54;;;;;;;3.85;2.03;;;;;;;;;;5056579;28;20029;-80
2022/10/15 08:32:20;;;;;;;0.90;0.77;;;;;;;;;;5037046;28;20104;-79
2022/10/15 08:34:46;;;;;;;2.92;1.50;;;;;;;;;;5053971;28;20040;-78
2022/10/15 08:37:15;;;;;;;3.80;2.33;;;;;;;;;;5049312;28;20029;-79
2022/10/15 08:39:45;;;;;;;1.95;0.73;;;;;;;;;;5048932;28;20033;-79
2022/10/15 08:42:16;;;;;;;1.80;0.80;;;;;;;;;;5052838;28;20044;-78
2022/10/15 08:44:53;;;;;;;1.73;1.08;;;;;;;;;;5036633;28;20021;-78
2022/10/15 08:47:43;;;;;;;2.78;0.55;;;;;;;;;;5034252;28;20044;-79
2022/10/15 08:50:28;;;;;;;1.65;1.13;;;;;;;;;;5046892;28;20029;-79
2022/10/15 08:52:56;;;;;;;1.58;1.15;;;;;;;;;;5038102;28;20029;-78
2022/10/15 08:55:22;;;;;;;2.17;1.17;;;;;;;;;;5032389;28;20022;-78
2022/10/15 08:57:51;;;;;;;1.92;1.20;;;;;;;;;;5035763;28;20029;-79
2022/10/15 09:00:22;;;;;;;4.25;0.88;;;;;;;;;;5051364;28;20102;-79
2022/10/15 09:02:58;;;;;;;1.95;1.10;;;;;;;;;;5034936;28;20033;-79
2022/10/15 09:05:43;;;;;;;2.00;0.90;;;;;;;;;;5035273;28;20033;-78
2022/10/15 09:08:11;;;;;;;10.32;1.45;;;;;;;;;;5034100;28;20068;-77
2022/10/15 09:10:49;;;;;;;6.57;1.10;;;;;;;;;;5037060;28;20029;-78
2022/10/15 09:13:30;;;;;;;4.07;1.67;;;;;;;;;;5052161;28;20044;-78
2022/10/15 09:15:59;;;;;;;1.75;1.23;;;;;;;;;;5032685;28;20025;-78
2022/10/15 09:18:27;;;;;;;1.00;0.50;;;;;;;;;;5050863;28;20032;-78
2022/10/15 09:20:53;;;;;;;1.58;0.90;;;;;;;;;;5030909;28;20020;-77
2022/10/15 09:23:25;;;;;;;0.88;0.60;;;;;;;;;;5030383;28;20032;-79
2022/10/15 09:25:58;;;;;;;1.03;0.40;;;;;;;;;;5033911;28;20033;-79
2022/10/15 09:28:26;;;;;;;0.98;0.57;;;;;;;;;;5047091;28;20102;-79
2022/10/15 09:30:55;;;;;;;2.17;0.73;;;;;;;;;;5029046;28;20166;-78
2022/10/15 09:33:33;;;;;;;3.38;0.55;;;;;;;;;;5034489;28;20069;-78
2022/10/15 09:36:19;;;;;;;1.40;0.80;;;;;;;;;;5032312;28;20029;-78
2022/10/15 09:38:55;;;;;;;1.15;0.60;;;;;;;;;;4996868;28;20071;-79
2022/10/15 09:41:40;;;;;;;3.15;0.50;;;;;;;;;;5041640;28;20036;-78
2022/10/15 09:44:12;;;;;;;0.70;0.38;;;;;;;;;;5038195;28;20021;-79
2022/10/15 09:46:38;;;;;;;;;;;;;;;;;;5056182;28;20438;-79
2022/10/15 09:49:30;;;;;;;0.65;0.38;;;;;;;;;;5038444;28;19996;-78
2022/10/15 09:52:22;;;;;;;0.93;0.65;;;;;;;;;;5049509;28;20134;-79
2022/10/15 09:54:48;;;;;;;1.00;0.70;;;;;;;;;;5034435;28;20514;-78
2022/10/15 09:57:17;;;;;;;2.35;0.57;;;;;;;;;;5037903;28;20064;-79
2022/10/15 09:59:55;;;;;;;4.70;0.57;;;;;;;;;;5034258;28;20028;-78
2022/10/15 10:02:22;;;;;;;0.80;0.50;;;;;;;;;;5045641;28;20032;-78
2022/10/15 10:04:48;;;;;;;1.10;0.57;;;;;;;;;;5038123;28;20086;-78
2022/10/15 10:07:34;;;;;;;1.15;0.70;;;;;;;;;;5037569;28;20025;-78
2022/10/15 10:10:06;;;;;;;0.95;0.60;;;;;;;;;;5034393;28;20029;-78
2022/10/15 10:12:34;;;;;;;1.25;0.70;;;;;;;;;;5021859;28;20086;-78
2022/10/15 10:15:06;;;;;;;1.15;0.90;;;;;;;;;;5038400;28;20033;-80
2022/10/15 10:17:32;;;;;;;0.82;0.40;;;;;;;;;;5037885;28;20060;-78
2022/10/15 10:20:18;;;;;;;0.90;0.80;;;;;;;;;;5037933;28;20040;-78
2022/10/15 10:22:49;;;;;;;2.03;0.70;;;;;;;;;;5037566;28;20029;-78
2022/10/15 10:25:30;;;;;;;1.05;0.90;;;;;;;;;;5037663;28;20125;-78
2022/10/15 10:27:57;;;;;;;0.80;0.65;;;;;;;;;;5026063;28;20495;-78
2022/10/15 10:30:24;;;;;;;1.50;0.60;;;;;;;;;;5055070;28;20032;-78
2022/10/15 10:32:57;;;;;;;2.97;0.68;;;;;;;;;;5055216;28;20025;-78
2022/10/15 10:35:24;;;;;;;0.88;0.60;;;;;;;;;;5037888;28;20029;-78
2022/10/15 10:37:51;;;;;;;0.88;0.60;;;;;;;;;;5036729;28;20033;-78
2022/10/15 10:40:20;;;;;;;1.25;0.73;;;;;;;;;;5037417;28;20032;-78
2022/10/15 10:42:46;;;;;;;2.22;1.10;;;;;;;;;;5037487;28;20036;-78
2022/10/15 10:45:22;;;;;;;3.75;1.00;;;;;;;;;;5041139;28;20409;-78
2022/10/15 10:47:49;;;;;;;0.60;0.43;;;;;;;;;;5061570;28;20028;-78
2022/10/15 10:50:29;;;;;;;2.13;0.55;;;;;;;;;;5043823;28;20361;-78
2022/10/15 10:52:56;;;;;;;0.88;0.60;;;;;;;;;;5060961;28;20030;-78
2022/10/15 10:55:24;;;;;;;2.15;0.80;;;;;;;;;;5044285;28;20104;-78
2022/10/15 10:57:58;;;;;;;2.80;0.73;;;;;;;;;;5044181;28;20021;-78
2022/10/15 11:00:38;;;;;;;2.60;0.30;;;;;;;;;;5046149;28;20032;-78
2022/10/15 11:03:04;;;;;;;0.80;0.40;;;;;;;;;;5061635;28;20048;-78
2022/10/15 11:05:33;;;;;;;0.60;0.40;;;;;;;;;;5046969;28;20112;-79
2022/10/15 11:08:18;;;;;;;2.83;0.70;;;;;;;;;;5061508;28;20029;-78
2022/10/15 11:10:51;;;;;;;3.40;0.47;;;;;;;;;;5044293;28;20033;-79
2022/10/15 11:13:29;;;;;;;0.68;0.30;;;;;;;;;;5062533;28;20043;-78
2022/10/15 11:16:11;;;;;;;0.73;0.40;;;;;;;;;;5033600;28;20453;-78
2022/10/15 11:18:43;;;;;;;1.25;0.50;;;;;;;;;;5048618;28;20444;-78
2022/10/15 11:21:33;;;;;;;0.95;0.30;;;;;;;;;;5044159;28;20104;-79
2022/10/15 11:24:12;;;;;;;0.75;0.25;;;;;;;;;;5044104;28;20102;-79
2022/10/15 11:26:57;;;;;;;0.40;0.30;;;;;;;;;;5047997;28;20025;-79
2022/10/15 11:29:31;;;;;;;0.50;0.20;;;;;;;;;;5061480;28;20118;-79
2022/10/15 11:32:16;;;;;;;0.30;0.17;;;;;;;;;;5044692;28;20433;-79
2022/10/15 11:35:00;;;;;;;0.10;0.10;;;;;;;;;;5037747;28;20021;-79
2022/10/15 11:37:35;;;;;;;0.43;0.20;;;;;;;;;;5054729;28;20029;-78
2022/10/15 11:40:25;;;;;;;0.28;0.20;;;;;;;;;;5033463;28;20476;-78
2022/10/15 11:42:55;;;;;;;0.40;0.13;;;;;;;;;;5040111;28;20079;-78
2022/10/15 11:45:30;;;;;;;0.40;0.38;;;;;;;;;;5043376;28;20043;-78
2022/10/15 11:47:59;;;;;;;0.20;0.20;;;;;;;;;;5040408;28;20033;-78
2022/10/15 11:50:40;;;;;;;6.50;0.32;;;;;;;;;;5042265;28;20033;-78
2022/10/15 11:53:06;;;;;;;0.85;0.30;;;;;;;;;;5043700;28;20032;-79
2022/10/15 11:55:37;;;;;;;2.17;0.40;;;;;;;;;;5043770;28;20028;-79
2022/10/15 11:58:09;;;;;;;0.10;0.10;;;;;;;;;;5039592;28;20036;-78
2022/10/15 12:00:41;;;;;;;0.50;0.20;;;;;;;;;;5040355;28;20040;-78
2022/10/15 12:03:14;;;;;;;1.80;0.40;;;;;;;;;;5058246;28;20028;-79
2022/10/15 12:05:44;;;;;;;0.43;0.10;;;;;;;;;;5041867;28;20102;-78
2022/10/15 12:08:11;;;;;;;0.10;0.10;;;;;;;;;;5040314;28;20029;-78
2022/10/15 12:10:49;;;;;;;0.30;0.10;;;;;;;;;;5040560;28;20434;-79
2022/10/15 12:13:22;;;;;;;3.60;0.30;;;;;;;;;;5040216;28;20017;-79
2022/10/15 12:15:54;;;;;;;0.40;0.20;;;;;;;;;;5040341;28;20021;-79
2022/10/15 12:18:20;;;;;;;;;;;;;;;;;;5040532;28;20025;-78
2022/10/15 12:20:46;;;;;;;0.30;0.10;;;;;;;;;;5041152;28;20485;-79
2022/10/15 12:23:26;;;;;;;0.57;0.43;;;;;;;;;;5042912;28;20112;-79
2022/10/15 12:25:52;;;;;;;1.45;0.30;;;;;;;;;;5040218;28;20032;-79
2022/10/15 12:28:27;;;;;;;0.30;0.20;;;;;;;;;;5043970;28;20025;-78
2022/10/15 12:30:54;;;;;;;0.20;0.17;;;;;;;;;;5040168;28;20467;-79
2022/10/15 12:33:23;;;;;;;0.22;0.10;;;;;;;;;;5040198;28;20112;-79
2022/10/15 12:35:54;;;;;;;0.28;0.10;;;;;;;;;;5039409;28;20029;-79
2022/10/15 12:38:24;;;;;;;0.08;0.08;;;;;;;;;;5057421;28;20050;-79
2022/10/15 12:40:58;;;;;;;0.30;0.17;;;;;;;;;;5040165;28;20033;-79
2022/10/15 12:43:24;;;;;;;0.17;0.17;;;;;;;;;;5040316;28;20029;-78
2022/10/15 12:45:55;;;;;;;0.63;0.20;;;;;;;;;;5039978;28;20465;-79
2022/10/15 12:48:29;;;;;;;0.65;0.30;;;;;;;;;;5040428;28;20028;-79
2022/10/15 12:51:14;;;;;;;0.10;0.10;;;;;;;;;;5039574;28;20025;-79
2022/10/15 12:53:47;;;;;;;0.20;0.10;;;;;;;;;;5040352;28;20112;-79
2022/10/15 12:56:21;;;;;;;0.60;0.60;;;;;;;;;;5039577;28;20151;-79
2022/10/15 12:58:48;;;;;;;0.50;0.10;;;;;;;;;;5039430;28;20358;-78
2022/10/15 13:01:13;;;;;;;0.20;0.10;;;;;;;;;;5039737;28;20028;-79
2022/10/15 13:03:49;;;;;;;0.10;0.10;;;;;;;;;;5039615;28;20060;-78
2022/10/15 13:06:15;;;;;;;0.10;0.10;;;;;;;;;;5039619;28;20025;-78
2022/10/15 13:08:46;;;;;;;0.40;0.10;;;;;;;;;;5038204;28;20060;-78
2022/10/15 13:11:23;;;;;;;1.88;0.20;;;;;;;;;;5056875;28;20021;-78
2022/10/15 13:13:52;;;;;;;0.03;0.00;;;;;;;;;;5033346;28;20025;-79
2022/10/15 13:16:18;;;;;;;0.10;0.08;;;;;;;;;;5051106;28;20025;-78
2022/10/15 13:18:49;;;;;;;0.98;0.22;;;;;;;;;;5038958;28;20159;-78
2022/10/15 13:21:17;;;;;;;9.00;0.60;;;;;;;;;;5038560;28;20028;-78
2022/10/15 13:23:48;;;;;;;0.20;0.20;;;;;;;;;;5038467;28;20029;-79
2022/10/15 13:26:19;;;;;;;0.85;0.10;;;;;;;;;;5038396;28;20495;-79
2022/10/15 13:28:46;;;;;;;0.10;0.10;;;;;;;;;;5038940;28;20028;-79
2022/10/15 13:31:26;;;;;;;0.40;0.32;;;;;;;;;;5040456;28;20048;-78
2022/10/15 13:33:53;;;;;;;1.45;0.22;;;;;;;;;;5056288;28;20017;-79
2022/10/15 13:36:27;;;;;;;0.43;0.10;;;;;;;;;;5035430;28;20043;-78
2022/10/15 13:38:54;;;;;;;0.60;0.45;;;;;;;;;;5048175;28;20028;-78
2022/10/15 13:41:28;;;;;;;4.68;0.80;;;;;;;;;;5038984;28;20039;-77
2022/10/15 13:43:57;;;;;;;0.00;0.00;;;;;;;;;;5039923;28;20036;-78
2022/10/15 13:46:24;;;;;;;0.22;0.20;;;;;;;;;;5031283;28;20029;-78
2022/10/15 13:48:55;;;;;;;0.52;0.20;;;;;;;;;;5028323;28;20025;-78
2022/10/15 13:51:21;;;;;;;0.38;0.22;;;;;;;;;;5032932;28;20040;-79
2022/10/15 13:53:48;;;;;;;0.80;0.30;;;;;;;;;;5046930;28;20445;-78
2022/10/15 13:56:17;;;;;;;0.38;0.32;;;;;;;;;;5032941;28;20025;-78
2022/10/15 13:58:46;;;;;;;0.20;0.15;;;;;;;;;;5050655;28;20456;-78
2022/10/15 14:01:17;;;;;;;0.17;0.15;;;;;;;;;;5026883;28;20025;-79
2022/10/15 14:03:50;;;;;;;0.40;0.30;;;;;;;;;;5049245;28;20040;-78
2022/10/15 14:06:28;;;;;;;1.40;0.20;;;;;;;;;;5027926;28;20528;-79
2022/10/15 14:08:55;;;;;;;5.38;0.85;;;;;;;;;;5049170;28;20108;-78
2022/10/15 14:11:24;;;;;;;0.20;0.20;;;;;;;;;;5028768;28;20110;-79
2022/10/15 14:13:51;;;;;;;0.30;0.20;;;;;;;;;;5050602;28;20475;-78
2022/10/15 14:16:23;;;;;;;0.20;0.20;;;;;;;;;;5033610;28;20009;-78
2022/10/15 14:18:54;;;;;;;0.47;0.30;;;;;;;;;;5030478;28;20083;-76
2022/10/15 14:21:27;;;;;;;0.20;0.10;;;;;;;;;;5029344;28;20127;-77
2022/10/15 14:24:05;;;;;;;0.63;0.20;;;;;;;;;;5027174;28;20607;-76
2022/10/15 14:26:34;;;;;;;0.90;0.10;;;;;;;;;;5026348;28;20036;-75
2022/10/15 14:29:01;;;;;;;0.30;0.20;;;;;;;;;;5046034;28;20098;-77
2022/10/15 14:31:32;;;;;;;0.68;0.52;;;;;;;;;;5047840;28;20115;-77
2022/10/15 14:33:58;;;;;;;0.50;0.40;;;;;;;;;;5029934;28;20021;-77
2022/10/15 14:36:27;;;;;;;1.17;0.95;;;;;;;;;;5030554;28;20039;-76
2022/10/15 14:38:54;;;;;;;2.83;0.77;;;;;;;;;;5028905;28;20044;-76
2022/10/15 14:41:30;;;;;;;0.22;0.10;;;;;;;;;;5046483;28;20025;-76
2022/10/15 14:44:02;;;;;;;0.73;0.22;;;;;;;;;;5042255;28;20040;-76
2022/10/15 14:46:35;;;;;;;7.50;0.55;;;;;;;;;;5044847;28;20120;-77
2022/10/15 14:49:01;;;;;;;1.25;0.10;;;;;;;;;;5030525;28;20079;-76
2022/10/15 14:51:27;;;;;;;0.40;0.10;;;;;;;;;;5029566;28;20025;-77
2022/10/15 14:53:54;;;;;;;0.70;0.50;;;;;;;;;;5031148;28;20020;-77
2022/10/15 14:56:21;;;;;;;1.88;0.60;;;;;;;;;;5030200;28;20029;-77